Flight Track Log - Related Links

Times and Time Zones

All times are in EDT time to prevent confusion due to time zone crossing. See the N825JF flight status page for this flight to view local times or setup timezone preferences in your user account.

Time Position Orientation Groundspeed Altitude Reporting Facility
EDT Latitude Longitude Course Direction KTS MPH feet Rate Location/Type
Sun 08:02:50 PM 33.6361 -101.8317 164° South 102 117 3,700  Level Fort Worth Center
Sun 08:03:44 PM 33.6114 -101.8231 164° South 106 122 4,400 574 Climbing Fort Worth Center
Sun 08:04:45 PM 33.5914 -101.7969 133° Southeast 106 122 4,800 446 Climbing Fort Worth Center
Sun 08:05:45 PM 33.5694 -101.7686 133° Southeast 114 131 5,300 397 Climbing Fort Worth Center
Sun 08:06:46 PM 33.5519 -101.7353 122° Southeast 122 140 5,600 393 Climbing Fort Worth Center
Sun 08:07:47 PM 33.5344 -101.6994 120° Southeast 127 146 6,100 496 Climbing Fort Worth Center
Sun 08:08:47 PM 33.5081 -101.6733 140° Southeast 127 146 6,600 446 Climbing Fort Worth Center
Sun 08:09:48 PM 33.4842 -101.6397 130° Southeast 122 140 7,000 417 Climbing Fort Worth Center
Sun 08:10:42 PM 33.4642 -101.6139 133° Southeast 122 140 7,400 417 Climbing Fort Worth Center
Sun 08:11:43 PM 33.4486 -101.5783 118° Southeast 121 139 7,800 443 Climbing Fort Worth Center
Sun 08:12:44 PM 33.4269 -101.5425 126° Southeast 124 143 8,300 400 Climbing Fort Worth Center
Sun 08:13:58 PM 33.4011 -101.5014 127° Southeast 110 127 8,700 358 Climbing Fort Worth Center
Sun 08:14:58 PM 33.3792 -101.4731 133° Southeast 129 148 9,100 200 Climbing Fort Worth Center
Sun 08:15:58 PM 33.3550 -101.4422 133° Southeast 137 158 9,100  Level Fort Worth Center
Sun 08:16:58 PM 33.3272 -101.4011 129° Southeast 142 163 9,100  Level Fort Worth Center
Sun 08:17:58 PM 33.2992 -101.3600 129° Southeast 147 169 9,100  Level Fort Worth Center
Sun 08:18:58 PM 33.2692 -101.3214 133° Southeast 152 175 9,100  Level Fort Worth Center
Sun 08:19:58 PM 33.2414 -101.2781 127° Southeast 152 175 9,100  Level Fort Worth Center
Sun 08:20:58 PM 33.2153 -101.2397 129° Southeast 157 181 9,100  Level Fort Worth Center
Sun 08:21:58 PM 33.1894 -101.1989 127° Southeast 152 175 9,100  Level Fort Worth Center
Sun 08:22:58 PM 33.1656 -101.1581 125° Southeast 152 175 9,100  Level Fort Worth Center
Sun 08:23:58 PM 33.1397 -101.1172 127° Southeast 159 183 9,100  Level Fort Worth Center
Sun 08:24:58 PM 33.1136 -101.0789 129° Southeast 159 183 9,100  Level Fort Worth Center
Sun 08:25:58 PM 33.0856 -101.0381 129° Southeast 154 177 9,100  Level Fort Worth Center
Sun 08:26:58 PM 33.0575 -101.0000 131° Southeast 154 177 9,100 -50 Level Fort Worth Center
Sun 08:27:58 PM 33.0294 -100.9592 129° Southeast 159 183 9,000 -50 Descending Fort Worth Center
Sun 08:28:58 PM 32.9994 -100.9183 131° Southeast 159 183 9,000  Level Fort Worth Center
Sun 08:29:58 PM 32.9711 -100.8775 130° Southeast 159 183 9,000  Level Fort Worth Center
Sun 08:30:58 PM 32.9453 -100.8369 127° Southeast 159 183 9,000  Level Fort Worth Center
Sun 08:31:58 PM 32.9150 -100.7936 130° Southeast 159 183 9,000  Level Fort Worth Center
Sun 08:32:58 PM 32.8869 -100.7506 128° Southeast 159 183 9,000  Level Fort Worth Center
Sun 08:33:58 PM 32.8567 -100.7122 133° Southeast 159 183 9,000  Level Fort Worth Center
Sun 08:34:58 PM 32.8308 -100.6669 124° Southeast 159 183 9,000 50 Level Fort Worth Center
Sun 08:35:58 PM 32.8006 -100.6286 133° Southeast 159 183 9,100 50 Climbing Fort Worth Center
Sun 08:36:58 PM 32.7681 -100.5881 134° Southeast 164 189 9,100 -50 Level Fort Worth Center
Sun 08:37:58 PM 32.7378 -100.5475 132° Southeast 164 189 9,000  Descending Fort Worth Center
Sun 08:38:58 PM 32.7117 -100.5047 126° Southeast 164 189 9,100 50 Climbing Fort Worth Center
Sun 08:39:58 PM 32.6836 -100.4617 128° Southeast 164 189 9,100  Level Fort Worth Center
Sun 08:40:58 PM 32.6553 -100.4164 127° Southeast 159 183 9,100  Level Fort Worth Center
Sun 08:41:58 PM 32.6250 -100.3758 132° Southeast 159 183 9,100  Level Fort Worth Center
Sun 08:42:58 PM 32.5928 -100.3328 132° Southeast 164 189 9,100 -50 Level Fort Worth Center
Sun 08:43:58 PM 32.5622 -100.2950 134° Southeast 164 189 9,000  Descending Fort Worth Center
Sun 08:44:58 PM 32.5297 -100.2544 134° Southeast 169 194 9,100 50 Climbing Fort Worth Center
Sun 08:45:58 PM 32.5058 -100.2094 122° Southeast 169 194 9,100  Level Fort Worth Center
Sun 08:46:58 PM 32.4797 -100.1617 123° Southeast 164 189 9,100  Level Fort Worth Center
Sun 08:47:58 PM 32.4428 -100.1261 141° Southeast 164 189 9,100  Level Fort Worth Center
Sun 08:48:58 PM 32.4144 -100.0836 128° Southeast 164 189 9,100 -11 Level Fort Worth Center
Sun 08:50:00 PM 32.3844 -100.0412 130° Southeast  Level FlightAware Approximate
Sun 08:57:00 PM 32.1806 -99.7543 130° Southeast  Level FlightAware Approximate
Sun 08:57:22 PM 32.1797 -99.7158 130° Southeast 167 192 9,000  Level Fort Worth Center
Sun 08:58:00 PM 32.1514 -99.7134 130° Southeast  Level FlightAware Approximate
Sun 08:58:22 PM 32.1469 -99.6781 136° Southeast 181 208 9,000  Level Fort Worth Center
Sun 08:59:00 PM 32.1223 -99.6726 130° Southeast  Level FlightAware Approximate
Sun 08:59:22 PM 32.1119 -99.6428 140° Southeast 176 203 9,000  Level Fort Worth Center
Sun 09:00:00 PM 32.0931 -99.6318 130° Southeast  Level FlightAware Approximate
Sun 09:00:22 PM 32.0814 -99.6006 130° Southeast 171 197 9,100  Level Fort Worth Center
Sun 09:01:00 PM 32.0639 -99.5910 130° Southeast  Level FlightAware Approximate
Sun 09:01:22 PM 32.0508 -99.5581 130° Southeast 166 191 9,200  Level Fort Worth Center
Sun 09:02:00 PM 32.0346 -99.5502 130° Southeast  Level FlightAware Approximate
Sun 09:02:22 PM 32.0244 -99.5183 128° Southeast 166 191 9,100  Level Fort Worth Center
Sun 09:03:00 PM 32.0054 -99.5095 130° Southeast  Level FlightAware Approximate
Sun 09:03:22 PM 32.0044 -99.4736 118° Southeast 161 185 9,500  Level Fort Worth Center
Sun 09:04:22 PM 31.9819 -99.4414 129° Southeast 143 165 10,000 450 Climbing Fort Worth Center
Sun 09:05:22 PM 31.9553 -99.4089 134° Southeast 138 159 10,400 350 Climbing Fort Worth Center
Sun 09:06:22 PM 31.9136 -99.4081 179° South 130 150 10,700 300 Climbing Fort Worth Center
Sun 09:07:22 PM 31.8761 -99.3975 167° South 136 157 11,000 250 Climbing Fort Worth Center
Sun 09:08:22 PM 31.8389 -99.3819 160° South 141 162 11,200 50 Climbing Fort Worth Center
Sun 09:09:22 PM 31.8100 -99.3447 132° Southeast 146 168 11,100 -50 Descending Fort Worth Center
Sun 09:10:22 PM 31.7836 -99.3050 128° Southeast 151 174 11,100  Level Fort Worth Center
Sun 09:11:22 PM 31.7592 -99.2531 119° Southeast 162 186 11,100  Level Fort Worth Center
Sun 09:12:22 PM 31.7286 -99.2158 134° Southeast 162 186 11,100  Level Fort Worth Center
Sun 09:13:22 PM 31.6936 -99.1786 138° Southeast 162 186 11,100  Level Fort Worth Center
Sun 09:14:22 PM 31.6628 -99.1389 132° Southeast 162 186 11,100  Level Fort Worth Center
Sun 09:16:32 PM 31.6017 -99.0519 130° Southeast 163 188 11,100  Level Houston Center
Sun 09:17:33 PM 31.5736 -99.0114 129° Southeast 159 183 11,100  Level Houston Center
Sun 09:18:34 PM 31.5442 -98.9700 130° Southeast 162 186 11,100  Level Houston Center
Sun 09:19:36 PM 31.5183 -98.9272 125° Southeast 160 184 11,100  Level Houston Center
Sun 09:20:37 PM 31.4917 -98.8847 126° Southeast 161 185 11,100  Level Houston Center
Sun 09:21:38 PM 31.4650 -98.8428 127° Southeast 160 184 11,100  Level Houston Center
Sun 09:22:39 PM 31.4408 -98.7986 123° Southeast 159 183 11,100  Level Houston Center
Sun 09:23:40 PM 31.4161 -98.7536 123° Southeast 161 185 11,100  Level Houston Center
Sun 09:24:42 PM 31.3828 -98.7156 136° Southeast 165 190 11,100  Level Houston Center
Sun 09:25:43 PM 31.3475 -98.6794 139° Southeast 168 193 11,100  Level Houston Center
Sun 09:26:44 PM 31.3186 -98.6372 129° Southeast 165 190 11,100  Level Houston Center
Sun 09:27:45 PM 31.2933 -98.5956 125° Southeast 159 183 11,100  Level Houston Center
Sun 09:28:47 PM 31.2600 -98.5481 129° Southeast 159 183 11,100  Level Houston Center
Sun 09:29:48 PM 31.2314 -98.5061 129° Southeast 163 188 11,100  Level Houston Center
Sun 09:30:49 PM 31.2011 -98.4650 131° Southeast 165 190 11,100  Level Houston Center
Sun 09:31:50 PM 31.1728 -98.4228 128° Southeast 164 189 11,100  Level Houston Center
Sun 09:32:51 PM 31.1431 -98.3819 130° Southeast 163 188 11,100  Level Houston Center
Sun 09:33:52 PM 31.1136 -98.3389 129° Southeast 167 192 11,100 -49 Level Houston Center
Sun 09:34:53 PM 31.0836 -98.2953 129° Southeast 170 196 11,000 -49 Descending Houston Center
Sun 09:35:55 PM 31.0522 -98.2531 131° Southeast 170 196 11,000  Level Houston Center
Sun 09:36:56 PM 31.0217 -98.2106 130° Southeast 170 196 11,000  Level Houston Center
Sun 09:37:44 PM 30.9967 -98.1739 128° Southeast 171 197 11,000  Level Houston Center
Sun 09:38:45 PM 30.9669 -98.1294 128° Southeast 172 198 11,000  Level Houston Center
Sun 09:39:47 PM 30.9358 -98.0864 130° Southeast 172 198 11,000  Level Houston Center
Sun 09:40:48 PM 30.9053 -98.0417 129° Southeast 174 200 11,000  Level Houston Center
Sun 09:41:49 PM 30.8733 -97.9972 130° Southeast 176 203 11,000  Level Houston Center
Sun 09:42:50 PM 30.8425 -97.9525 129° Southeast 177 204 11,000  Level Houston Center
Sun 09:43:51 PM 30.8111 -97.9083 130° Southeast 176 203 11,000  Level Houston Center
Sun 09:44:52 PM 30.7789 -97.8642 130° Southeast 177 204 11,000  Level Houston Center
Sun 09:45:53 PM 30.7469 -97.8203 130° Southeast 177 204 11,000  Level Houston Center
Sun 09:46:55 PM 30.7161 -97.7742 128° Southeast 178 205 11,000  Level Houston Center
Sun 09:47:56 PM 30.6850 -97.7300 129° Southeast 176 203 11,000  Level Houston Center
Sun 09:48:57 PM 30.6531 -97.6858 130° Southeast 176 203 11,000  Level Houston Center
Sun 09:49:58 PM 30.6217 -97.6425 130° Southeast 175 201 11,000 49 Level Houston Center
Sun 09:50:59 PM 30.5867 -97.5925 129° Southeast 171 197 11,100 49 Climbing Houston Center
Sun 09:52:00 PM 30.5550 -97.5483 130° Southeast 175 201 11,100  Level Houston Center
Sun 09:53:01 PM 30.5233 -97.5031 129° Southeast 178 205 11,100 -49 Level Houston Center
Sun 09:54:02 PM 30.4917 -97.4592 130° Southeast 177 204 11,000 -49 Descending Houston Center
Sun 09:55:03 PM 30.4606 -97.4150 129° Southeast 176 203 11,000  Level Houston Center
Sun 09:56:05 PM 30.4283 -97.3706 130° Southeast 177 204 11,000 -49 Level Houston Center
Sun 09:57:06 PM 30.3975 -97.3269 129° Southeast 175 201 10,900 -344 Descending Houston Center
Sun 09:58:07 PM 30.3622 -97.2789 130° Southeast 191 220 10,300 -471 Descending Houston Center
Sun 09:58:48 PM 30.3378 -97.2450 130° Southeast 198 228 10,100 -404 Descending Houston Center
Sun 09:59:36 PM 30.3197 -97.2008 115° Southeast 194 223 9,700 -519 Descending Houston Center
Sun 10:00:09 PM 30.3122 -97.1717 107° East 187 215 9,400 -574 Descending Houston Center
Sun 10:01:10 PM 30.2958 -97.1139 108° East 187 215 8,800 -590 Descending Houston Center
Sun 10:02:11 PM 30.2733 -97.0617 117° Southeast 181 208 8,200 -541 Descending Houston Center
Sun 10:03:12 PM 30.2544 -97.0067 112° Southeast 181 208 7,700 -442 Descending Houston Center
Sun 10:03:46 PM 30.2431 -96.9697 110° East 188 216 7,500 -442 Descending Houston Center
Sun 10:04:47 PM 30.2297 -96.9083 104° East 191 220 7,000 -248 Descending Houston Center
Sun 10:05:47 PM 30.2106 -96.8525 112° Southeast 191 220 7,000  Level Houston Center
Sun 10:06:48 PM 30.1956 -96.7936 106° East 179 206 7,000  Level Houston Center
Sun 10:07:49 PM 30.1806 -96.7372 107° East 176 203 7,000  Level Houston Center
Sun 10:08:50 PM 30.1658 -96.6858 108° East 177 204 7,000  Level Houston Center
Sun 10:09:51 PM 30.1444 -96.6303 114° Southeast 181 208 7,000  Level Houston Center
Sun 10:10:58 PM 30.1231 -96.5722 113° Southeast 179 206 7,000  Level Houston Center
Sun 10:11:53 PM 30.1067 -96.5258 112° Southeast 179 206 7,000  Level Houston Center
Sun 10:12:53 PM 30.0872 -96.4700 112° Southeast 179 206 7,000  Level Houston Center
Sun 10:13:23 PM 30.0811 -96.4506 110° East 181 208 7,000  Level Houston Center
Sun 10:14:00 PM 30.0656 -96.4097 114° Southeast 179 206 7,000  Level Houston Center
Sun 10:14:49 PM 30.0494 -96.3681 114° Southeast 177 204 7,000  Level Houston Center
Sun 10:15:25 PM 30.0394 -96.3347 109° East 179 206 7,000  Level Houston Center
Sun 10:16:26 PM 30.0200 -96.2825 113° Southeast 177 204 7,000  Level Houston Center
Sun 10:16:57 PM 30.0108 -96.2589 114° Southeast 175 201 7,000  Level Houston Center
Sun 10:17:28 PM 30.0022 -96.2306 109° East 175 201 7,000  Level Houston Center
Sun 10:17:58 PM 29.9936 -96.2053 111° Southeast 173 199 7,000  Level Houston Center
Sun 10:18:29 PM 29.9844 -96.1789 112° Southeast 174 200 7,000  Level Houston Center
Sun 10:19:30 PM 29.9653 -96.1267 113° Southeast 176 203 7,000  Level Houston Center
Sun 10:20:31 PM 29.9461 -96.0744 113° Southeast 177 204 7,000  Level Houston Center
Sun 10:21:32 PM 29.9239 -96.0233 117° Southeast 179 206 7,000  Level Houston Center
Sun 10:22:33 PM 29.8964 -95.9750 123° Southeast 178 205 7,000  Level Houston Center
Sun 10:23:34 PM 29.8697 -95.9264 122° Southeast 180 207 7,000  Level Houston Center
Sun 10:24:35 PM 29.8431 -95.8792 123° Southeast 177 204 7,000 -49 Level Houston Center
Sun 10:25:36 PM 29.8119 -95.8325 128° Southeast 182 209 6,900 -443 Descending Houston Center
Sun 10:26:37 PM 29.7797 -95.7808 126° Southeast 194 223 6,100 -639 Descending Houston Center
Sun 10:27:38 PM 29.7450 -95.7297 128° Southeast 202 232 5,600 -541 Descending Houston Center
Sun 10:28:39 PM 29.7069 -95.6706 127° Southeast 195 224 5,000 -295 Descending Houston Center
Sun 10:29:40 PM 29.6758 -95.6247 128° Southeast 187 215 5,000  Level Houston Center
Sun 10:30:41 PM 29.6475 -95.5797 126° Southeast 178 205 5,000  Level Houston Center
Sun 10:31:42 PM 29.6203 -95.5350 125° Southeast 173 199 5,000 -295 Level Houston Center
Sun 10:32:43 PM 29.5906 -95.4894 127° Southeast 178 205 4,400 -639 Descending Houston Center
Sun 10:33:44 PM 29.5583 -95.4414 128° Southeast 187 215 3,700 -738 Descending Houston Center
Sun 10:34:45 PM 29.5283 -95.3933 126° Southeast 187 215 2,900 -738 Descending Houston Center
Sun 10:35:46 PM 29.5219 -95.3392 98° East 179 206 2,200 -689 Descending Houston Center

Login

Don't have an account? Register now (free) for customized features, flight alerts, and more!